This is the latest recevied weather packets stored in our database for station/object KD4PMP. If no packets are shown the sender has not sent any weather packets the latest 10 day(s).
| Time | Temp. | Humidity | Pressure | Rain* | Wind** | Luminosity | Snow |
|---|---|---|---|---|---|---|---|
| 1777608024 | 11.11° C | 83% | 1015.1 hPa | 0 mm | - | - | - |
| 1777607424 | 11.11° C | 82% | 1015.1 hPa | 0 mm | - | - | - |
| 1777606793 | 11.11° C | 81% | 1015.1 hPa | 0 mm | - | - | - |
| 1777606223 | 11.11° C | 80% | 1015.1 hPa | 0 mm | - | - | - |
| 1777605623 | 11.11° C | 79% | 1015.3 hPa | 0 mm | - | - | - |
| 1777605022 | 11.11° C | 78% | 1015.2 hPa | 0 mm | - | - | - |
| 1777604422 | 11.67° C | 77% | 1015.1 hPa | 0 mm | - | - | - |
| 1777603821 | 11.67° C | 75% | 1015 hPa | 0 mm | - | - | - |
| 1777603222 | 11.67° C | 75% | 1014.9 hPa | 0 mm | - | - | - |
| 1777602621 | 11.67° C | 74% | 1014.8 hPa | 0 mm | - | - | - |
| 1777602021 | 12.22° C | 70% | 1014.5 hPa | 0 mm | - | - | - |
| 1777601421 | 12.22° C | 68% | 1014.3 hPa | 0 mm | - | - | - |
| 1777600820 | 12.78° C | 66% | 1014.3 hPa | 0 mm | - | - | - |
| 1777600220 | 12.78° C | 65% | 1014.3 hPa | 0 mm | - | - | - |
| 1777599620 | 13.33° C | 66% | 1014.3 hPa | 0 mm | - | - | - |
| 1777599019 | 13.33° C | 65% | 1014.4 hPa | 0 mm | - | - | - |
| 1777598419 | 13.89° C | 62% | 1014.2 hPa | 0 mm | - | - | - |
| 1777597819 | 14.44° C | 61% | 1014.2 hPa | 0 mm | - | - | - |
| 1777597218 | 15° C | 61% | 1014.2 hPa | 0 mm | - | - | - |
| 1777596618 | 15.56° C | 59% | 1014.1 hPa | 0 mm | - | - | - |
| 1777596018 | 15.56° C | 56% | 1013.8 hPa | 0 mm | - | - | - |
| 1777595418 | 16.11° C | 55% | 1013.8 hPa | 0 mm | - | - | - |
| 1777594817 | 16.11° C | 54% | 1013.7 hPa | 0 mm | - | - | - |
| 1777594217 | 16.11° C | 54% | 1013.7 hPa | 0 mm | - | - | - |
| 1777593617 | 16.67° C | 51% | 1013.5 hPa | 0 mm | - | - | - |
* Rain latest hour (hover to see other rain measurements)
** Current wind speed in m/s (hover to see current wind gust speed)